Sweetser, IN (46987)

12:06 AM EST on March 01, 2015 (GMT -0500)
Mississinewa Lake | Change Station
CLOSE
Current Station
Personal Weather Station
Location: LaFontaine, IN
Elevation: 807 ft
Nearby Weather Stations
Active Advisory: Winter Weather Advisory Active Notice: Record Report

Elev 807 ft 40.66 °N, 85.79 °W | Updated 15 seconds ago

Snow
Snow
17.5 °F
Feels Like 18 °F
N
0.0
Wind Variable Wind from SE
Gusts 0.0 mph

Today
High -- | Low -- °F
--% Chance of Precip.
Yesterday
High -- | Low -- °F
Precip. -- in
7:17 AM 6:34 PM
Waxing Gibbous, 82% visible
Pressure 30.47 in
Visibility 1.5 miles
Clouds Overcast 1700 ft
Windchill 18 °F
Dew Point 15 °F
Humidity 90%
Rainfall 0.00 in
Snow Depth Not available.
UV 0 out of 12
Pollen .30 out of 12
Air Quality Not available.
Flu Activity Not available.
METAR KMZZ 010455Z AUTO 11004KT 1 1/2SM -SN OVC017 M08/M09 A3047 RMK AO2 P0001 T10771095

More Conditions Fewer Conditions

Pressure 30.47 in
Visibility 1.5 miles
Clouds Overcast 1700 ft
Windchill 18 °F
Dew Point 15 °F
Humidity 90%
Rainfall 0.00 in
Snow Depth Not available.
UV 0 out of 12
Pollen .30 out of 12
Air Quality Not available.
Flu Activity Not available.
METAR KMZZ 010455Z AUTO 11004KT 1 1/2SM -SN OVC017 M08/M09 A3047 RMK AO2 P0001 T10771095

More Conditions Fewer Conditions

10-Day Weather Forecast

Almanac

Astronomy

Mar. 01, 2015 Rise Set
Actual Time
Civil Twilight
Nautical Twilight
Astronomical Twilight
Moon
Length of Visible Light
Length of Day
Tomorrow will be .
, % of the Moon is Illuminated

Today's Extremes

State Highs State Lows

Community

WunderPhotos

Upload Photos

1,801,317 photos uploaded!

WunderBlogs® & News

Nearby

Air Quality

  Air Quality AQ Index Pollutant
Not available.

Snow Depth

Station Depth Elevation

Earthquake Activity

City Distance Mag. Time & Date
Minimum magnitude displayed is 2.5.

Coastal Water Temperatures

Place Temperature

Nearby Weather Stations

Winter Weather Advisory
Statement as of 9:01 PM EST on February 28, 2015

... Winter Weather Advisory remains in effect until 7 PM EST
Sunday...

Hazardous weather...

* snow will continue to overspread the area this evening... and
   continue through the day Sunday.

* Total snow accumulations of 4 to 6 inches are expected by
   Sunday evening.

Impacts...

* snow covered roads will result in hazardous driving
   conditions.

Precautionary/preparedness actions...

A Winter Weather Advisory for snow means that periods of snow
will cause primarily travel difficulties. Be prepared for snow
covered roads and limited visibilities... and use caution while
driving.